Dawson, Iowa
Current Conditions -  °F | °C
As of 2:35 PM on Monday 24 Nov 2014 (Local Time) from KPRO Reporting Station
Overcast Overcast  
Wind Chill: 12°   Ceiling: 2500
Heat Index: 27°   Visibility: 10mi
Dew Point: 19°   Wind: 22mph
Humidity: 73%   Direction: 300°WNW
Pressure: 29.71"   Gusts: 30mph
Location:  41.84°N, 94.22°W
Report Text: KPRO 242035Z AUTO 30019G26KT 10SM OVC025 M03/M07 A2971 RMK AO2 T10301072
Loading
Personal Weather Stations






























Interactive Weather Map New forecast layout! Learn more

10-Day Weather Forecast

Advertisements
Track Severe Weather on mobile